sensor_id;sensor_type;location;lat;lon;timestamp;P1;durP1;ratioP1;P2;durP2;ratioP2
69981;SDS011;57319;56.274;43.980;2023-04-03T00:01:10;17.63;;;10.75;;
69981;SDS011;57319;56.274;43.980;2023-04-03T00:03:36;19.52;;;10.68;;
69981;SDS011;57319;56.274;43.980;2023-04-03T00:06:02;14.95;;;10.32;;
69981;SDS011;57319;56.274;43.980;2023-04-03T00:08:28;12.15;;;9.88;;
69981;SDS011;57319;56.274;43.980;2023-04-03T00:10:56;12.60;;;9.95;;
69981;SDS011;57319;56.274;43.980;2023-04-03T00:13:22;15.52;;;8.75;;
69981;SDS011;57319;56.274;43.980;2023-04-03T00:15:48;17.83;;;9.60;;
69981;SDS011;57319;56.274;43.980;2023-04-03T00:18:14;11.07;;;8.93;;
69981;SDS011;57319;56.274;43.980;2023-04-03T00:20:40;12.63;;;9.15;;
69981;SDS011;57319;56.274;43.980;2023-04-03T00:23:05;12.75;;;9.20;;
69981;SDS011;57319;56.274;43.980;2023-04-03T00:25:31;13.02;;;8.55;;
69981;SDS011;57319;56.274;43.980;2023-04-03T00:27:57;14.90;;;9.38;;
69981;SDS011;57319;56.274;43.980;2023-04-03T00:30:22;12.13;;;8.80;;
69981;SDS011;57319;56.274;43.980;2023-04-03T00:32:49;12.07;;;8.80;;
69981;SDS011;57319;56.274;43.980;2023-04-03T00:35:15;11.10;;;8.55;;
69981;SDS011;57319;56.274;43.980;2023-04-03T00:37:41;14.32;;;8.88;;
69981;SDS011;57319;56.274;43.980;2023-04-03T00:40:08;11.98;;;9.32;;
69981;SDS011;57319;56.274;43.980;2023-04-03T00:42:36;18.23;;;9.82;;
69981;SDS011;57319;56.274;43.980;2023-04-03T00:47:29;13.23;;;8.52;;
69981;SDS011;57319;56.274;43.980;2023-04-03T00:49:56;16.45;;;8.82;;
69981;SDS011;57319;56.274;43.980;2023-04-03T00:52:23;12.52;;;9.02;;
69981;SDS011;57319;56.274;43.980;2023-04-03T00:54:54;13.57;;;8.98;;
69981;SDS011;57319;56.274;43.980;2023-04-03T00:57:22;14.77;;;8.80;;
69981;SDS011;57319;56.274;43.980;2023-04-03T00:59:49;15.32;;;8.85;;
69981;SDS011;57319;56.274;43.980;2023-04-03T01:02:20;18.65;;;8.93;;
69981;SDS011;57319;56.274;43.980;2023-04-03T01:04:45;16.75;;;9.85;;
69981;SDS011;57319;56.274;43.980;2023-04-03T01:07:14;14.55;;;9.40;;
69981;SDS011;57319;56.274;43.980;2023-04-03T01:09:44;13.73;;;9.60;;
69981;SDS011;57319;56.274;43.980;2023-04-03T01:12:35;16.55;;;10.93;;
69981;SDS011;57319;56.274;43.980;2023-04-03T01:15:04;14.93;;;10.60;;
69981;SDS011;57319;56.274;43.980;2023-04-03T01:17:39;15.50;;;9.95;;
69981;SDS011;57319;56.274;43.980;2023-04-03T01:28:04;22.05;;;11.85;;
69981;SDS011;57319;56.274;43.980;2023-04-03T01:30:32;20.75;;;11.93;;
69981;SDS011;57319;56.274;43.980;2023-04-03T01:33:09;16.98;;;11.25;;
69981;SDS011;57319;56.274;43.980;2023-04-03T01:35:35;15.68;;;10.82;;
69981;SDS011;57319;56.274;43.980;2023-04-03T01:38:00;16.75;;;10.32;;
69981;SDS011;57319;56.274;43.980;2023-04-03T01:40:26;13.85;;;9.70;;
69981;SDS011;57319;56.274;43.980;2023-04-03T01:42:52;18.92;;;9.90;;
69981;SDS011;57319;56.274;43.980;2023-04-03T01:45:17;12.40;;;9.07;;
69981;SDS011;57319;56.274;43.980;2023-04-03T01:47:43;13.35;;;9.30;;
69981;SDS011;57319;56.274;43.980;2023-04-03T01:50:08;13.13;;;9.15;;
69981;SDS011;57319;56.274;43.980;2023-04-03T01:52:34;12.38;;;9.48;;
69981;SDS011;57319;56.274;43.980;2023-04-03T01:55:00;16.92;;;8.68;;
69981;SDS011;57319;56.274;43.980;2023-04-03T01:57:25;13.73;;;9.00;;
69981;SDS011;57319;56.274;43.980;2023-04-03T01:59:51;15.93;;;9.10;;
69981;SDS011;57319;56.274;43.980;2023-04-03T02:02:16;11.57;;;9.10;;
69981;SDS011;57319;56.274;43.980;2023-04-03T02:04:42;13.20;;;8.13;;
69981;SDS011;57319;56.274;43.980;2023-04-03T02:07:08;9.68;;;7.82;;
69981;SDS011;57319;56.274;43.980;2023-04-03T02:09:33;12.48;;;8.20;;
69981;SDS011;57319;56.274;43.980;2023-04-03T02:12:00;15.63;;;9.13;;
69981;SDS011;57319;56.274;43.980;2023-04-03T02:14:25;16.00;;;8.98;;
69981;SDS011;57319;56.274;43.980;2023-04-03T02:17:12;12.40;;;7.70;;
69981;SDS011;57319;56.274;43.980;2023-04-03T02:19:38;18.85;;;8.90;;
69981;SDS011;57319;56.274;43.980;2023-04-03T02:22:04;10.70;;;8.57;;
69981;SDS011;57319;56.274;43.980;2023-04-03T02:24:30;19.50;;;9.90;;
69981;SDS011;57319;56.274;43.980;2023-04-03T02:26:56;12.98;;;9.25;;
69981;SDS011;57319;56.274;43.980;2023-04-03T02:29:23;16.52;;;9.05;;
69981;SDS011;57319;56.274;43.980;2023-04-03T02:31:49;12.93;;;9.32;;
69981;SDS011;57319;56.274;43.980;2023-04-03T02:34:15;14.20;;;9.13;;
69981;SDS011;57319;56.274;43.980;2023-04-03T02:36:41;18.67;;;10.18;;
69981;SDS011;57319;56.274;43.980;2023-04-03T02:39:06;21.42;;;10.48;;
69981;SDS011;57319;56.274;43.980;2023-04-03T02:41:32;18.08;;;9.57;;
69981;SDS011;57319;56.274;43.980;2023-04-03T02:44:01;16.90;;;9.50;;
69981;SDS011;57319;56.274;43.980;2023-04-03T02:46:28;17.08;;;10.18;;
69981;SDS011;57319;56.274;43.980;2023-04-03T02:48:53;16.65;;;9.85;;
69981;SDS011;57319;56.274;43.980;2023-04-03T02:51:19;17.52;;;10.23;;
69981;SDS011;57319;56.274;43.980;2023-04-03T02:53:45;17.33;;;10.73;;
69981;SDS011;57319;56.274;43.980;2023-04-03T02:56:11;13.68;;;9.38;;
69981;SDS011;57319;56.274;43.980;2023-04-03T02:58:36;17.35;;;9.75;;
69981;SDS011;57319;56.274;43.980;2023-04-03T03:01:02;14.55;;;9.82;;
69981;SDS011;57319;56.274;43.980;2023-04-03T03:03:28;19.00;;;10.23;;
69981;SDS011;57319;56.274;43.980;2023-04-03T03:06:03;14.75;;;9.18;;
69981;SDS011;57319;56.274;43.980;2023-04-03T03:08:33;14.80;;;9.63;;
69981;SDS011;57319;56.274;43.980;2023-04-03T03:11:00;12.40;;;9.32;;
69981;SDS011;57319;56.274;43.980;2023-04-03T03:13:26;13.48;;;9.43;;
69981;SDS011;57319;56.274;43.980;2023-04-03T03:15:52;13.70;;;9.52;;
69981;SDS011;57319;56.274;43.980;2023-04-03T03:18:17;18.08;;;9.82;;
69981;SDS011;57319;56.274;43.980;2023-04-03T03:20:43;18.50;;;9.45;;
69981;SDS011;57319;56.274;43.980;2023-04-03T03:23:09;12.32;;;8.88;;
69981;SDS011;57319;56.274;43.980;2023-04-03T03:25:38;13.35;;;8.77;;
69981;SDS011;57319;56.274;43.980;2023-04-03T03:28:05;22.02;;;9.77;;
69981;SDS011;57319;56.274;43.980;2023-04-03T03:30:30;18.85;;;9.63;;
69981;SDS011;57319;56.274;43.980;2023-04-03T03:32:56;10.98;;;8.73;;
69981;SDS011;57319;56.274;43.980;2023-04-03T03:35:22;13.52;;;9.02;;
69981;SDS011;57319;56.274;43.980;2023-04-03T03:37:47;14.20;;;9.07;;
69981;SDS011;57319;56.274;43.980;2023-04-03T03:40:13;12.23;;;9.77;;
69981;SDS011;57319;56.274;43.980;2023-04-03T03:42:39;12.50;;;9.27;;
69981;SDS011;57319;56.274;43.980;2023-04-03T03:45:05;13.32;;;9.05;;
69981;SDS011;57319;56.274;43.980;2023-04-03T03:47:31;11.13;;;9.15;;
69981;SDS011;57319;56.274;43.980;2023-04-03T03:49:57;11.35;;;8.23;;
69981;SDS011;57319;56.274;43.980;2023-04-03T03:52:22;14.35;;;8.48;;
69981;SDS011;57319;56.274;43.980;2023-04-03T03:54:48;13.45;;;9.45;;
69981;SDS011;57319;56.274;43.980;2023-04-03T03:57:14;13.35;;;8.90;;
69981;SDS011;57319;56.274;43.980;2023-04-03T03:59:40;16.17;;;9.60;;
69981;SDS011;57319;56.274;43.980;2023-04-03T04:02:07;14.15;;;8.70;;
69981;SDS011;57319;56.274;43.980;2023-04-03T04:04:33;13.93;;;8.77;;
69981;SDS011;57319;56.274;43.980;2023-04-03T04:06:58;11.48;;;9.25;;
69981;SDS011;57319;56.274;43.980;2023-04-03T04:09:25;12.73;;;9.18;;
69981;SDS011;57319;56.274;43.980;2023-04-03T04:11:52;13.52;;;8.65;;
69981;SDS011;57319;56.274;43.980;2023-04-03T04:14:18;16.33;;;9.10;;
69981;SDS011;57319;56.274;43.980;2023-04-03T04:16:45;14.95;;;9.43;;
69981;SDS011;57319;56.274;43.980;2023-04-03T04:19:12;11.77;;;9.27;;
69981;SDS011;57319;56.274;43.980;2023-04-03T04:21:37;13.05;;;8.85;;
69981;SDS011;57319;56.274;43.980;2023-04-03T04:24:04;17.60;;;9.57;;
69981;SDS011;57319;56.274;43.980;2023-04-03T04:26:30;14.55;;;9.02;;
69981;SDS011;57319;56.274;43.980;2023-04-03T04:28:56;11.73;;;8.73;;
69981;SDS011;57319;56.274;43.980;2023-04-03T04:31:22;16.52;;;8.75;;
69981;SDS011;57319;56.274;43.980;2023-04-03T04:33:47;15.32;;;9.02;;
69981;SDS011;57319;56.274;43.980;2023-04-03T04:36:13;14.13;;;8.35;;
69981;SDS011;57319;56.274;43.980;2023-04-03T04:38:40;11.77;;;8.93;;
69981;SDS011;57319;56.274;43.980;2023-04-03T04:41:06;13.77;;;7.60;;
69981;SDS011;57319;56.274;43.980;2023-04-03T04:43:32;9.98;;;8.30;;
69981;SDS011;57319;56.274;43.980;2023-04-03T04:46:04;10.73;;;7.60;;
69981;SDS011;57319;56.274;43.980;2023-04-03T04:48:34;10.18;;;7.80;;
69981;SDS011;57319;56.274;43.980;2023-04-03T04:51:01;11.70;;;8.45;;
69981;SDS011;57319;56.274;43.980;2023-04-03T04:53:27;11.90;;;8.13;;
69981;SDS011;57319;56.274;43.980;2023-04-03T04:55:53;17.42;;;8.38;;
69981;SDS011;57319;56.274;43.980;2023-04-03T04:58:19;12.00;;;7.57;;
69981;SDS011;57319;56.274;43.980;2023-04-03T05:00:45;9.63;;;7.75;;
69981;SDS011;57319;56.274;43.980;2023-04-03T05:03:11;9.32;;;7.40;;
69981;SDS011;57319;56.274;43.980;2023-04-03T05:05:36;10.10;;;7.80;;
69981;SDS011;57319;56.274;43.980;2023-04-03T05:08:02;12.70;;;8.10;;
69981;SDS011;57319;56.274;43.980;2023-04-03T05:10:29;11.07;;;8.40;;
69981;SDS011;57319;56.274;43.980;2023-04-03T05:12:55;14.13;;;8.40;;
69981;SDS011;57319;56.274;43.980;2023-04-03T05:15:21;11.80;;;8.02;;
69981;SDS011;57319;56.274;43.980;2023-04-03T05:17:46;12.93;;;7.97;;
69981;SDS011;57319;56.274;43.980;2023-04-03T05:20:12;10.57;;;8.90;;
69981;SDS011;57319;56.274;43.980;2023-04-03T05:22:38;12.27;;;9.57;;
69981;SDS011;57319;56.274;43.980;2023-04-03T05:25:04;13.85;;;9.50;;
69981;SDS011;57319;56.274;43.980;2023-04-03T05:27:30;15.55;;;10.15;;
69981;SDS011;57319;56.274;43.980;2023-04-03T05:29:56;14.05;;;9.68;;
69981;SDS011;57319;56.274;43.980;2023-04-03T05:32:23;13.45;;;9.55;;
69981;SDS011;57319;56.274;43.980;2023-04-03T05:34:50;11.07;;;8.80;;
69981;SDS011;57319;56.274;43.980;2023-04-03T05:37:16;14.25;;;8.70;;
69981;SDS011;57319;56.274;43.980;2023-04-03T05:39:42;15.13;;;8.98;;
69981;SDS011;57319;56.274;43.980;2023-04-03T05:42:08;14.23;;;8.90;;
69981;SDS011;57319;56.274;43.980;2023-04-03T05:44:33;12.32;;;8.77;;
69981;SDS011;57319;56.274;43.980;2023-04-03T05:47:00;19.55;;;8.50;;
69981;SDS011;57319;56.274;43.980;2023-04-03T05:49:25;13.75;;;9.25;;
69981;SDS011;57319;56.274;43.980;2023-04-03T05:51:51;15.45;;;8.57;;
69981;SDS011;57319;56.274;43.980;2023-04-03T05:54:24;15.63;;;9.35;;
69981;SDS011;57319;56.274;43.980;2023-04-03T05:56:51;14.70;;;8.77;;
69981;SDS011;57319;56.274;43.980;2023-04-03T05:59:17;16.30;;;8.98;;
69981;SDS011;57319;56.274;43.980;2023-04-03T06:01:44;13.75;;;9.30;;
69981;SDS011;57319;56.274;43.980;2023-04-03T06:04:10;11.35;;;7.78;;
69981;SDS011;57319;56.274;43.980;2023-04-03T06:06:49;17.65;;;7.40;;
69981;SDS011;57319;56.274;43.980;2023-04-03T06:09:16;11.65;;;8.05;;
69981;SDS011;57319;56.274;43.980;2023-04-03T06:11:43;20.25;;;7.90;;
69981;SDS011;57319;56.274;43.980;2023-04-03T06:14:09;8.35;;;6.75;;
69981;SDS011;57319;56.274;43.980;2023-04-03T06:16:35;10.80;;;6.43;;
69981;SDS011;57319;56.274;43.980;2023-04-03T06:19:01;20.35;;;6.68;;
69981;SDS011;57319;56.274;43.980;2023-04-03T06:21:27;12.52;;;7.90;;
69981;SDS011;57319;56.274;43.980;2023-04-03T06:23:53;17.48;;;7.75;;
69981;SDS011;57319;56.274;43.980;2023-04-03T06:26:18;13.05;;;7.22;;
69981;SDS011;57319;56.274;43.980;2023-04-03T06:28:45;14.80;;;6.57;;
69981;SDS011;57319;56.274;43.980;2023-04-03T06:31:11;11.77;;;6.68;;
69981;SDS011;57319;56.274;43.980;2023-04-03T06:33:36;10.82;;;6.60;;
69981;SDS011;57319;56.274;43.980;2023-04-03T06:36:03;8.38;;;6.40;;
69981;SDS011;57319;56.274;43.980;2023-04-03T06:38:31;16.17;;;6.35;;
69981;SDS011;57319;56.274;43.980;2023-04-03T06:40:57;12.05;;;6.78;;
69981;SDS011;57319;56.274;43.980;2023-04-03T06:43:23;15.15;;;6.97;;
69981;SDS011;57319;56.274;43.980;2023-04-03T06:45:49;12.50;;;7.20;;
69981;SDS011;57319;56.274;43.980;2023-04-03T06:48:15;8.80;;;6.65;;
69981;SDS011;57319;56.274;43.980;2023-04-03T06:50:41;14.85;;;7.85;;
69981;SDS011;57319;56.274;43.980;2023-04-03T06:53:08;19.10;;;7.03;;
69981;SDS011;57319;56.274;43.980;2023-04-03T06:55:34;12.13;;;6.82;;
69981;SDS011;57319;56.274;43.980;2023-04-03T06:58:01;10.18;;;6.75;;
69981;SDS011;57319;56.274;43.980;2023-04-03T07:00:27;12.73;;;6.10;;
69981;SDS011;57319;56.274;43.980;2023-04-03T07:02:52;11.52;;;6.60;;
69981;SDS011;57319;56.274;43.980;2023-04-03T07:05:18;13.15;;;6.65;;
69981;SDS011;57319;56.274;43.980;2023-04-03T07:07:44;10.63;;;5.75;;
69981;SDS011;57319;56.274;43.980;2023-04-03T07:10:10;7.65;;;5.13;;
69981;SDS011;57319;56.274;43.980;2023-04-03T07:12:36;17.75;;;5.75;;
69981;SDS011;57319;56.274;43.980;2023-04-03T07:15:03;12.95;;;5.68;;
69981;SDS011;57319;56.274;43.980;2023-04-03T07:17:30;15.65;;;7.05;;
69981;SDS011;57319;56.274;43.980;2023-04-03T07:19:56;12.15;;;5.78;;
69981;SDS011;57319;56.274;43.980;2023-04-03T07:22:22;13.65;;;5.55;;
69981;SDS011;57319;56.274;43.980;2023-04-03T07:24:47;8.15;;;5.97;;
69981;SDS011;57319;56.274;43.980;2023-04-03T07:27:13;15.25;;;5.95;;
69981;SDS011;57319;56.274;43.980;2023-04-03T07:29:39;21.67;;;5.97;;
69981;SDS011;57319;56.274;43.980;2023-04-03T07:32:04;11.48;;;5.88;;
69981;SDS011;57319;56.274;43.980;2023-04-03T07:34:32;15.73;;;5.50;;
69981;SDS011;57319;56.274;43.980;2023-04-03T07:36:58;9.43;;;5.63;;
69981;SDS011;57319;56.274;43.980;2023-04-03T07:39:24;11.50;;;5.22;;
69981;SDS011;57319;56.274;43.980;2023-04-03T07:41:50;10.27;;;5.47;;
69981;SDS011;57319;56.274;43.980;2023-04-03T07:44:15;8.45;;;6.68;;
69981;SDS011;57319;56.274;43.980;2023-04-03T07:46:41;11.05;;;6.13;;
69981;SDS011;57319;56.274;43.980;2023-04-03T07:49:07;14.65;;;5.75;;
69981;SDS011;57319;56.274;43.980;2023-04-03T07:51:33;8.15;;;5.07;;
69981;SDS011;57319;56.274;43.980;2023-04-03T07:53:58;10.52;;;4.97;;
69981;SDS011;57319;56.274;43.980;2023-04-03T07:56:24;13.88;;;5.28;;
69981;SDS011;57319;56.274;43.980;2023-04-03T07:58:50;9.48;;;5.30;;
69981;SDS011;57319;56.274;43.980;2023-04-03T08:01:16;8.45;;;4.82;;
69981;SDS011;57319;56.274;43.980;2023-04-03T08:03:42;9.38;;;5.30;;
69981;SDS011;57319;56.274;43.980;2023-04-03T08:06:08;6.80;;;4.97;;
69981;SDS011;57319;56.274;43.980;2023-04-03T08:08:34;10.27;;;6.00;;
69981;SDS011;57319;56.274;43.980;2023-04-03T08:11:01;8.63;;;5.03;;
69981;SDS011;57319;56.274;43.980;2023-04-03T08:13:28;6.90;;;5.00;;
69981;SDS011;57319;56.274;43.980;2023-04-03T08:15:55;13.70;;;5.90;;
69981;SDS011;57319;56.274;43.980;2023-04-03T08:18:22;11.82;;;4.90;;
69981;SDS011;57319;56.274;43.980;2023-04-03T08:20:50;9.43;;;4.85;;
69981;SDS011;57319;56.274;43.980;2023-04-03T08:23:17;11.65;;;5.32;;
69981;SDS011;57319;56.274;43.980;2023-04-03T08:25:43;11.13;;;5.00;;
69981;SDS011;57319;56.274;43.980;2023-04-03T08:28:10;14.48;;;5.57;;
69981;SDS011;57319;56.274;43.980;2023-04-03T08:30:38;8.05;;;4.50;;
69981;SDS011;57319;56.274;43.980;2023-04-03T08:33:05;5.47;;;4.97;;
69981;SDS011;57319;56.274;43.980;2023-04-03T08:35:32;6.57;;;4.93;;
69981;SDS011;57319;56.274;43.980;2023-04-03T08:37:58;7.13;;;4.45;;
69981;SDS011;57319;56.274;43.980;2023-04-03T08:40:23;11.15;;;4.75;;
69981;SDS011;57319;56.274;43.980;2023-04-03T08:48:27;6.28;;;4.35;;
69981;SDS011;57319;56.274;43.980;2023-04-03T08:50:59;10.98;;;5.05;;
69981;SDS011;57319;56.274;43.980;2023-04-03T08:53:30;6.15;;;4.25;;
69981;SDS011;57319;56.274;43.980;2023-04-03T08:56:05;11.93;;;4.63;;
69981;SDS011;57319;56.274;43.980;2023-04-03T08:58:39;9.63;;;4.70;;
69981;SDS011;57319;56.274;43.980;2023-04-03T09:01:26;12.38;;;5.00;;
69981;SDS011;57319;56.274;43.980;2023-04-03T09:03:55;5.22;;;4.38;;
69981;SDS011;57319;56.274;43.980;2023-04-03T09:06:29;6.53;;;4.35;;
69981;SDS011;57319;56.274;43.980;2023-04-03T09:09:10;6.07;;;4.82;;
69981;SDS011;57319;56.274;43.980;2023-04-03T09:14:42;5.80;;;4.38;;
69981;SDS011;57319;56.274;43.980;2023-04-03T09:17:41;8.23;;;4.68;;
69981;SDS011;57319;56.274;43.980;2023-04-03T09:26:08;8.18;;;5.00;;
69981;SDS011;57319;56.274;43.980;2023-04-03T09:28:39;5.28;;;4.47;;
69981;SDS011;57319;56.274;43.980;2023-04-03T09:36:54;6.95;;;4.10;;
69981;SDS011;57319;56.274;43.980;2023-04-03T09:39:22;16.63;;;4.05;;
69981;SDS011;57319;56.274;43.980;2023-04-03T09:44:36;17.08;;;6.93;;
69981;SDS011;57319;56.274;43.980;2023-04-03T09:52:40;12.90;;;4.43;;
69981;SDS011;57319;56.274;43.980;2023-04-03T09:55:10;14.75;;;8.65;;
69981;SDS011;57319;56.274;43.980;2023-04-03T09:57:40;25.20;;;10.88;;
69981;SDS011;57319;56.274;43.980;2023-04-03T10:00:06;21.52;;;9.27;;
69981;SDS011;57319;56.274;43.980;2023-04-03T10:02:49;22.08;;;7.57;;
69981;SDS011;57319;56.274;43.980;2023-04-03T10:10:32;12.02;;;4.75;;
69981;SDS011;57319;56.274;43.980;2023-04-03T10:13:14;7.75;;;3.53;;
69981;SDS011;57319;56.274;43.980;2023-04-03T10:15:49;18.80;;;6.63;;
69981;SDS011;57319;56.274;43.980;2023-04-03T10:38:16;7.23;;;4.37;;
69981;SDS011;57319;56.274;43.980;2023-04-03T10:45:53;6.88;;;2.92;;
69981;SDS011;57319;56.274;43.980;2023-04-03T10:54:20;24.40;;;6.75;;
69981;SDS011;57319;56.274;43.980;2023-04-03T10:56:57;6.93;;;3.17;;
69981;SDS011;57319;56.274;43.980;2023-04-03T10:59:29;10.45;;;3.15;;
69981;SDS011;57319;56.274;43.980;2023-04-03T11:04:41;6.05;;;3.10;;
69981;SDS011;57319;56.274;43.980;2023-04-03T11:07:11;6.38;;;4.03;;
69981;SDS011;57319;56.274;43.980;2023-04-03T11:09:46;8.70;;;4.68;;
69981;SDS011;57319;56.274;43.980;2023-04-03T11:12:17;5.50;;;5.00;;
69981;SDS011;57319;56.274;43.980;2023-04-03T11:14:50;7.32;;;6.03;;
69981;SDS011;57319;56.274;43.980;2023-04-03T11:22:28;9.90;;;6.53;;
69981;SDS011;57319;56.274;43.980;2023-04-03T11:25:05;7.57;;;3.53;;
69981;SDS011;57319;56.274;43.980;2023-04-03T11:27:55;6.20;;;2.97;;
69981;SDS011;57319;56.274;43.980;2023-04-03T11:35:48;12.77;;;2.97;;
69981;SDS011;57319;56.274;43.980;2023-04-03T11:38:19;14.93;;;2.78;;
69981;SDS011;57319;56.274;43.980;2023-04-03T11:40:49;5.90;;;3.17;;
69981;SDS011;57319;56.274;43.980;2023-04-03T11:43:28;12.57;;;2.70;;
69981;SDS011;57319;56.274;43.980;2023-04-03T11:45:59;14.57;;;3.47;;
69981;SDS011;57319;56.274;43.980;2023-04-03T11:50:54;10.55;;;3.88;;
69981;SDS011;57319;56.274;43.980;2023-04-03T11:53:28;6.07;;;3.65;;
69981;SDS011;57319;56.274;43.980;2023-04-03T12:01:53;8.25;;;2.63;;
69981;SDS011;57319;56.274;43.980;2023-04-03T12:04:22;4.82;;;3.72;;
69981;SDS011;57319;56.274;43.980;2023-04-03T12:06:54;7.57;;;2.58;;
69981;SDS011;57319;56.274;43.980;2023-04-03T12:09:54;9.60;;;2.50;;
69981;SDS011;57319;56.274;43.980;2023-04-03T12:15:12;6.93;;;3.03;;
69981;SDS011;57319;56.274;43.980;2023-04-03T12:17:42;6.32;;;2.83;;
69981;SDS011;57319;56.274;43.980;2023-04-03T12:28:40;14.50;;;3.65;;
69981;SDS011;57319;56.274;43.980;2023-04-03T12:31:08;19.83;;;3.60;;
69981;SDS011;57319;56.274;43.980;2023-04-03T12:36:30;11.45;;;2.78;;
69981;SDS011;57319;56.274;43.980;2023-04-03T12:39:13;6.75;;;2.65;;
69981;SDS011;57319;56.274;43.980;2023-04-03T12:44:45;10.90;;;2.65;;
69981;SDS011;57319;56.274;43.980;2023-04-03T12:47:31;10.77;;;2.85;;
69981;SDS011;57319;56.274;43.980;2023-04-03T12:50:01;2.90;;;2.35;;
69981;SDS011;57319;56.274;43.980;2023-04-03T12:52:44;4.32;;;2.50;;
69981;SDS011;57319;56.274;43.980;2023-04-03T12:55:17;8.75;;;3.20;;
69981;SDS011;57319;56.274;43.980;2023-04-03T12:57:45;14.18;;;2.90;;
69981;SDS011;57319;56.274;43.980;2023-04-03T13:03:03;22.42;;;5.63;;
69981;SDS011;57319;56.274;43.980;2023-04-03T13:05:31;18.98;;;3.75;;
69981;SDS011;57319;56.274;43.980;2023-04-03T13:07:59;6.03;;;2.92;;
69981;SDS011;57319;56.274;43.980;2023-04-03T13:10:30;15.50;;;3.15;;
69981;SDS011;57319;56.274;43.980;2023-04-03T13:13:07;10.88;;;2.97;;
69981;SDS011;57319;56.274;43.980;2023-04-03T13:15:44;3.53;;;2.85;;
69981;SDS011;57319;56.274;43.980;2023-04-03T13:18:33;8.88;;;3.25;;
69981;SDS011;57319;56.274;43.980;2023-04-03T13:23:38;12.80;;;3.15;;
69981;SDS011;57319;56.274;43.980;2023-04-03T13:26:07;11.13;;;2.90;;
69981;SDS011;57319;56.274;43.980;2023-04-03T13:28:34;8.85;;;2.33;;
69981;SDS011;57319;56.274;43.980;2023-04-03T13:33:33;4.40;;;2.67;;
69981;SDS011;57319;56.274;43.980;2023-04-03T13:38:29;5.15;;;3.15;;
69981;SDS011;57319;56.274;43.980;2023-04-03T13:41:00;12.32;;;3.10;;
69981;SDS011;57319;56.274;43.980;2023-04-03T13:43:30;16.60;;;3.10;;
69981;SDS011;57319;56.274;43.980;2023-04-03T13:48:37;17.77;;;3.10;;
69981;SDS011;57319;56.274;43.980;2023-04-03T13:58:53;20.45;;;3.28;;
69981;SDS011;57319;56.274;43.980;2023-04-03T14:01:22;9.45;;;2.63;;
69981;SDS011;57319;56.274;43.980;2023-04-03T14:06:26;12.65;;;3.45;;
69981;SDS011;57319;56.274;43.980;2023-04-03T14:08:53;13.77;;;3.30;;
69981;SDS011;57319;56.274;43.980;2023-04-03T14:11:23;30.33;;;3.42;;
69981;SDS011;57319;56.274;43.980;2023-04-03T14:13:53;19.08;;;3.35;;
69981;SDS011;57319;56.274;43.980;2023-04-03T14:16:22;9.50;;;3.10;;
69981;SDS011;57319;56.274;43.980;2023-04-03T14:18:52;12.97;;;3.77;;
69981;SDS011;57319;56.274;43.980;2023-04-03T14:21:18;6.75;;;3.72;;
69981;SDS011;57319;56.274;43.980;2023-04-03T14:23:46;7.40;;;5.20;;
69981;SDS011;57319;56.274;43.980;2023-04-03T14:26:16;11.73;;;3.58;;
69981;SDS011;57319;56.274;43.980;2023-04-03T14:28:47;6.82;;;3.10;;
69981;SDS011;57319;56.274;43.980;2023-04-03T14:31:15;13.60;;;3.05;;
69981;SDS011;57319;56.274;43.980;2023-04-03T14:33:42;11.75;;;4.28;;
69981;SDS011;57319;56.274;43.980;2023-04-03T14:36:25;16.17;;;3.10;;
69981;SDS011;57319;56.274;43.980;2023-04-03T14:38:53;43.00;;;3.65;;
69981;SDS011;57319;56.274;43.980;2023-04-03T14:41:21;15.52;;;3.00;;
69981;SDS011;57319;56.274;43.980;2023-04-03T14:43:47;24.20;;;3.90;;
69981;SDS011;57319;56.274;43.980;2023-04-03T14:46:15;6.75;;;3.13;;
69981;SDS011;57319;56.274;43.980;2023-04-03T14:48:42;12.77;;;3.05;;
69981;SDS011;57319;56.274;43.980;2023-04-03T14:51:11;20.90;;;3.30;;
69981;SDS011;57319;56.274;43.980;2023-04-03T14:53:39;7.28;;;2.70;;
69981;SDS011;57319;56.274;43.980;2023-04-03T14:56:13;14.95;;;2.50;;
69981;SDS011;57319;56.274;43.980;2023-04-03T14:58:41;7.85;;;2.80;;
69981;SDS011;57319;56.274;43.980;2023-04-03T15:01:08;19.35;;;2.95;;
69981;SDS011;57319;56.274;43.980;2023-04-03T15:03:36;8.80;;;3.47;;
69981;SDS011;57319;56.274;43.980;2023-04-03T15:06:01;12.07;;;3.33;;
69981;SDS011;57319;56.274;43.980;2023-04-03T15:08:27;11.25;;;3.42;;
69981;SDS011;57319;56.274;43.980;2023-04-03T15:10:56;16.05;;;3.17;;
69981;SDS011;57319;56.274;43.980;2023-04-03T15:13:23;21.73;;;3.35;;
69981;SDS011;57319;56.274;43.980;2023-04-03T15:15:50;13.13;;;3.10;;
69981;SDS011;57319;56.274;43.980;2023-04-03T15:18:19;19.70;;;3.40;;
69981;SDS011;57319;56.274;43.980;2023-04-03T15:20:47;7.68;;;2.83;;
69981;SDS011;57319;56.274;43.980;2023-04-03T15:23:14;12.95;;;3.35;;
69981;SDS011;57319;56.274;43.980;2023-04-03T15:25:41;25.45;;;3.53;;
69981;SDS011;57319;56.274;43.980;2023-04-03T15:28:09;24.05;;;4.93;;
69981;SDS011;57319;56.274;43.980;2023-04-03T15:30:50;15.60;;;4.20;;
69981;SDS011;57319;56.274;43.980;2023-04-03T15:33:16;16.58;;;4.70;;
69981;SDS011;57319;56.274;43.980;2023-04-03T15:35:42;24.83;;;4.00;;
69981;SDS011;57319;56.274;43.980;2023-04-03T15:38:08;20.80;;;4.20;;
69981;SDS011;57319;56.274;43.980;2023-04-03T15:40:35;24.20;;;7.00;;
69981;SDS011;57319;56.274;43.980;2023-04-03T15:43:02;31.25;;;4.60;;
69981;SDS011;57319;56.274;43.980;2023-04-03T15:45:29;31.90;;;4.32;;
69981;SDS011;57319;56.274;43.980;2023-04-03T15:47:56;26.08;;;4.72;;
69981;SDS011;57319;56.274;43.980;2023-04-03T15:50:22;15.88;;;4.45;;
69981;SDS011;57319;56.274;43.980;2023-04-03T15:52:51;16.85;;;3.75;;
69981;SDS011;57319;56.274;43.980;2023-04-03T15:55:23;25.15;;;4.57;;
69981;SDS011;57319;56.274;43.980;2023-04-03T15:57:52;23.83;;;4.83;;
69981;SDS011;57319;56.274;43.980;2023-04-03T16:00:18;9.55;;;4.53;;
69981;SDS011;57319;56.274;43.980;2023-04-03T16:02:45;15.73;;;4.07;;
69981;SDS011;57319;56.274;43.980;2023-04-03T16:05:12;15.13;;;3.90;;
69981;SDS011;57319;56.274;43.980;2023-04-03T16:07:39;31.17;;;4.63;;
69981;SDS011;57319;56.274;43.980;2023-04-03T16:10:05;16.58;;;4.38;;
69981;SDS011;57319;56.274;43.980;2023-04-03T16:12:33;20.63;;;4.65;;
69981;SDS011;57319;56.274;43.980;2023-04-03T16:14:58;16.75;;;4.80;;
69981;SDS011;57319;56.274;43.980;2023-04-03T16:17:25;16.70;;;4.40;;
69981;SDS011;57319;56.274;43.980;2023-04-03T16:19:52;11.77;;;3.95;;
69981;SDS011;57319;56.274;43.980;2023-04-03T16:22:19;28.70;;;4.35;;
69981;SDS011;57319;56.274;43.980;2023-04-03T16:24:45;28.60;;;4.53;;
69981;SDS011;57319;56.274;43.980;2023-04-03T16:27:11;14.40;;;3.97;;
69981;SDS011;57319;56.274;43.980;2023-04-03T16:29:36;18.90;;;4.07;;
69981;SDS011;57319;56.274;43.980;2023-04-03T16:32:02;45.88;;;5.53;;
69981;SDS011;57319;56.274;43.980;2023-04-03T16:34:28;17.95;;;6.00;;
69981;SDS011;57319;56.274;43.980;2023-04-03T16:36:56;20.42;;;5.70;;
69981;SDS011;57319;56.274;43.980;2023-04-03T16:39:21;21.52;;;5.90;;
69981;SDS011;57319;56.274;43.980;2023-04-03T16:41:47;16.42;;;5.40;;
69981;SDS011;57319;56.274;43.980;2023-04-03T16:44:12;23.88;;;5.82;;
69981;SDS011;57319;56.274;43.980;2023-04-03T16:46:38;17.77;;;4.60;;